Delray Beach, FL (33444)

5:08 PM EST on November 26, 2014 (GMT -0500)
Lake Ida | Change Station
CLOSE
Current Station
Personal Weather Station
Location: Delray Beach, FL
Elevation: 10 ft
Nearby Weather Stations

Elev 10 ft 26.47 °N, 80.08 °W | Updated 7 seconds ago

Mostly Cloudy
Mostly Cloudy
63.1 °F
Feels Like 63.1 °F
N
0.0
Wind Variable Wind from North
Gusts 8.0 mph

Today
High -- | Low -- °F
--% Chance of Precip.
Yesterday
High -- | Low -- °F
Precip. -- in
6:47 AM 5:27 PM
Waxing Crescent, 23% visible
Pressure 30.12 in
Visibility 10.0 miles
Clouds Few 2500 ft
Mostly Cloudy 9500 ft
Mostly Cloudy 23000 ft
Dew Point 56 °F
Humidity 77%
Rainfall 0.51 in
Snow Depth Not available.
UV 0 out of 12
Pollen 1.00 out of 12
Air Quality Not available.
Flu Activity Not available.
METAR KPMP 262153Z 33014KT 10SM FEW025 BKN095 BKN230 18/12 A3012 RMK AO2 SLP199 T01830122

More Conditions Fewer Conditions

Pressure 30.12 in
Visibility 10.0 miles
Clouds Few 2500 ft
Mostly Cloudy 9500 ft
Mostly Cloudy 23000 ft
Dew Point 56 °F
Humidity 77%
Rainfall 0.51 in
Snow Depth Not available.
UV 0 out of 12
Pollen 1.00 out of 12
Air Quality Not available.
Flu Activity Not available.
METAR KPMP 262153Z 33014KT 10SM FEW025 BKN095 BKN230 18/12 A3012 RMK AO2 SLP199 T01830122

More Conditions Fewer Conditions

10-Day Weather Forecast

Almanac

Astronomy

Nov. 26, 2014 Rise Set
Actual Time
Civil Twilight
Nautical Twilight
Astronomical Twilight
Moon
Length of Visible Light
Length of Day
Tomorrow will be .
, % of the Moon is Illuminated

Today's Extremes

State Highs State Lows

Community

WunderPhotos

Upload Photos

1,773,888 photos uploaded!

WunderBlogs® & News

Nearby

Air Quality

  Air Quality AQ Index Pollutant
Not available.

Snow Depth

Station Depth Elevation

Earthquake Activity

City Distance Mag. Time & Date
Minimum magnitude displayed is 2.5.

Coastal Water Temperatures

Place Temperature

Nearby Weather Stations